Pierson, Michigan
Current Conditions -  °F | °C
As of 7:31 AM on Friday 31 Oct 2014 (Local Time) from KFFX Reporting Station
Overcast Overcast  
Wind Chill: 33°   Ceiling: 1200
Heat Index: 37°   Visibility: 10mi
Dew Point: 36°   Wind: 5mph
Humidity: 95%   Direction: 280°W
Pressure: 29.92"   Gusts: NA
Location:  43.32°N, 85.5°W
Report Text: KFFX 311131Z AUTO 28004KT 10SM OVC012 03/02 A2992 RMK AO2 T00270020
Loading
Personal Weather Stations






























Interactive Weather Map
Tropical Storm Tracking
New forecast layout! Learn more

10-Day Weather Forecast

Advertisements
Track Severe Weather on mobile